sensor_id;sensor_type;location;lat;lon;timestamp;P1;durP1;ratioP1;P2;durP2;ratioP2
54959;SDS011;40860;51.710;8.736;2023-04-15T00:35:54;7.75;;;6.55;;
54959;SDS011;40860;51.710;8.736;2023-04-15T01:14:47;8.73;;;6.80;;
54959;SDS011;40860;51.710;8.736;2023-04-15T01:20:11;7.25;;;6.30;;
54959;SDS011;40860;51.710;8.736;2023-04-15T01:24:42;8.30;;;6.50;;
54959;SDS011;40860;51.710;8.736;2023-04-15T01:39:46;10.27;;;7.43;;
54959;SDS011;40860;51.710;8.736;2023-04-15T01:59:41;10.13;;;6.90;;
54959;SDS011;40860;51.710;8.736;2023-04-15T02:04:43;10.63;;;6.72;;
54959;SDS011;40860;51.710;8.736;2023-04-15T02:15:23;8.15;;;6.35;;
54959;SDS011;40860;51.710;8.736;2023-04-15T02:25:57;8.30;;;6.38;;
54959;SDS011;40860;51.710;8.736;2023-04-15T02:31:42;6.82;;;6.13;;
54959;SDS011;40860;51.710;8.736;2023-04-15T02:36:57;7.45;;;6.20;;
54959;SDS011;40860;51.710;8.736;2023-04-15T02:42:13;10.10;;;7.88;;
54959;SDS011;40860;51.710;8.736;2023-04-15T03:25:25;14.25;;;11.05;;
54959;SDS011;40860;51.710;8.736;2023-04-15T03:30:10;10.95;;;8.57;;
54959;SDS011;40860;51.710;8.736;2023-04-15T03:35:57;10.75;;;8.88;;
54959;SDS011;40860;51.710;8.736;2023-04-15T03:40:42;12.23;;;9.20;;
54959;SDS011;40860;51.710;8.736;2023-04-15T03:45:36;10.20;;;8.48;;
54959;SDS011;40860;51.710;8.736;2023-04-15T03:50:13;12.05;;;9.52;;
54959;SDS011;40860;51.710;8.736;2023-04-15T04:01:12;11.60;;;8.65;;
54959;SDS011;40860;51.710;8.736;2023-04-15T04:11:03;12.35;;;8.52;;
54959;SDS011;40860;51.710;8.736;2023-04-15T04:16:04;12.00;;;9.95;;
54959;SDS011;40860;51.710;8.736;2023-04-15T04:38:25;14.70;;;9.00;;
54959;SDS011;40860;51.710;8.736;2023-04-15T04:43:28;12.98;;;8.63;;
54959;SDS011;40860;51.710;8.736;2023-04-15T04:58:27;12.38;;;9.90;;
54959;SDS011;40860;51.710;8.736;2023-04-15T05:26:20;14.55;;;10.90;;
54959;SDS011;40860;51.710;8.736;2023-04-15T05:37:30;13.25;;;10.70;;
54959;SDS011;40860;51.710;8.736;2023-04-15T05:43:18;14.07;;;11.32;;
54959;SDS011;40860;51.710;8.736;2023-04-15T05:53:12;13.85;;;11.05;;
54959;SDS011;40860;51.710;8.736;2023-04-15T05:57:38;13.40;;;10.88;;
54959;SDS011;40860;51.710;8.736;2023-04-15T06:02:11;15.07;;;11.02;;
54959;SDS011;40860;51.710;8.736;2023-04-15T06:12:43;13.23;;;11.05;;
54959;SDS011;40860;51.710;8.736;2023-04-15T06:34:31;16.38;;;11.80;;
54959;SDS011;40860;51.710;8.736;2023-04-15T06:45:39;16.92;;;12.27;;
54959;SDS011;40860;51.710;8.736;2023-04-15T07:00:13;16.85;;;12.90;;
54959;SDS011;40860;51.710;8.736;2023-04-15T07:04:16;17.10;;;13.75;;
54959;SDS011;40860;51.710;8.736;2023-04-15T07:08:21;20.50;;;13.55;;
54959;SDS011;40860;51.710;8.736;2023-04-15T07:12:24;15.63;;;13.43;;
54959;SDS011;40860;51.710;8.736;2023-04-15T07:16:27;19.60;;;14.70;;
54959;SDS011;40860;51.710;8.736;2023-04-15T07:20:31;16.10;;;13.68;;
54959;SDS011;40860;51.710;8.736;2023-04-15T07:24:35;18.40;;;14.07;;
54959;SDS011;40860;51.710;8.736;2023-04-15T07:28:38;21.77;;;13.63;;
54959;SDS011;40860;51.710;8.736;2023-04-15T07:32:41;19.38;;;14.80;;
54959;SDS011;40860;51.710;8.736;2023-04-15T07:36:44;18.45;;;13.85;;
54959;SDS011;40860;51.710;8.736;2023-04-15T07:40:52;18.02;;;14.57;;
54959;SDS011;40860;51.710;8.736;2023-04-15T07:44:55;20.05;;;15.68;;
54959;SDS011;40860;51.710;8.736;2023-04-15T07:48:58;18.52;;;15.07;;
54959;SDS011;40860;51.710;8.736;2023-04-15T07:53:01;16.60;;;13.90;;
54959;SDS011;40860;51.710;8.736;2023-04-15T07:57:07;19.10;;;14.93;;
54959;SDS011;40860;51.710;8.736;2023-04-15T08:01:10;17.85;;;14.70;;
54959;SDS011;40860;51.710;8.736;2023-04-15T08:05:13;21.92;;;15.52;;
54959;SDS011;40860;51.710;8.736;2023-04-15T08:09:17;21.80;;;16.00;;
54959;SDS011;40860;51.710;8.736;2023-04-15T08:13:25;21.38;;;15.82;;
54959;SDS011;40860;51.710;8.736;2023-04-15T08:17:28;21.45;;;15.93;;
54959;SDS011;40860;51.710;8.736;2023-04-15T08:21:31;22.60;;;16.38;;
54959;SDS011;40860;51.710;8.736;2023-04-15T08:25:36;22.15;;;16.58;;
54959;SDS011;40860;51.710;8.736;2023-04-15T08:29:40;24.58;;;17.50;;
54959;SDS011;40860;51.710;8.736;2023-04-15T08:33:43;23.00;;;17.13;;
54959;SDS011;40860;51.710;8.736;2023-04-15T08:37:48;27.10;;;18.15;;
54959;SDS011;40860;51.710;8.736;2023-04-15T08:41:54;20.48;;;15.52;;
54959;SDS011;40860;51.710;8.736;2023-04-15T08:46:03;21.40;;;15.02;;
54959;SDS011;40860;51.710;8.736;2023-04-15T08:50:08;19.33;;;14.45;;
54959;SDS011;40860;51.710;8.736;2023-04-15T08:54:12;17.40;;;13.50;;
54959;SDS011;40860;51.710;8.736;2023-04-15T08:58:15;21.00;;;15.10;;
54959;SDS011;40860;51.710;8.736;2023-04-15T09:02:20;18.58;;;13.60;;
54959;SDS011;40860;51.710;8.736;2023-04-15T09:06:24;18.45;;;14.63;;
54959;SDS011;40860;51.710;8.736;2023-04-15T09:10:27;21.75;;;16.45;;
54959;SDS011;40860;51.710;8.736;2023-04-15T09:14:32;22.20;;;15.43;;
54959;SDS011;40860;51.710;8.736;2023-04-15T09:18:37;19.77;;;14.43;;
54959;SDS011;40860;51.710;8.736;2023-04-15T09:22:40;17.23;;;13.15;;
54959;SDS011;40860;51.710;8.736;2023-04-15T09:26:44;18.38;;;14.13;;
54959;SDS011;40860;51.710;8.736;2023-04-15T09:30:47;21.35;;;14.45;;
54959;SDS011;40860;51.710;8.736;2023-04-15T09:34:54;20.10;;;14.02;;
54959;SDS011;40860;51.710;8.736;2023-04-15T09:38:58;18.55;;;12.65;;
54959;SDS011;40860;51.710;8.736;2023-04-15T09:43:02;18.50;;;11.90;;
54959;SDS011;40860;51.710;8.736;2023-04-15T09:47:05;13.07;;;9.63;;
54959;SDS011;40860;51.710;8.736;2023-04-15T09:51:09;13.00;;;9.55;;
54959;SDS011;40860;51.710;8.736;2023-04-15T09:55:13;12.68;;;9.95;;
54959;SDS011;40860;51.710;8.736;2023-04-15T09:59:17;12.68;;;9.38;;
54959;SDS011;40860;51.710;8.736;2023-04-15T10:03:21;11.38;;;8.30;;
54959;SDS011;40860;51.710;8.736;2023-04-15T10:07:27;10.02;;;8.27;;
54959;SDS011;40860;51.710;8.736;2023-04-15T10:11:30;9.05;;;7.60;;
54959;SDS011;40860;51.710;8.736;2023-04-15T10:15:35;9.02;;;7.40;;
54959;SDS011;40860;51.710;8.736;2023-04-15T10:19:39;9.48;;;7.65;;
54959;SDS011;40860;51.710;8.736;2023-04-15T10:23:43;7.97;;;7.18;;
54959;SDS011;40860;51.710;8.736;2023-04-15T10:27:47;9.07;;;7.20;;
54959;SDS011;40860;51.710;8.736;2023-04-15T10:31:52;9.15;;;7.55;;
54959;SDS011;40860;51.710;8.736;2023-04-15T10:35:56;9.52;;;7.35;;
54959;SDS011;40860;51.710;8.736;2023-04-15T10:40:01;9.43;;;7.55;;
54959;SDS011;40860;51.710;8.736;2023-04-15T10:44:28;8.80;;;7.03;;
54959;SDS011;40860;51.710;8.736;2023-04-15T10:48:31;8.90;;;7.20;;
54959;SDS011;40860;51.710;8.736;2023-04-15T10:52:34;10.65;;;7.32;;
54959;SDS011;40860;51.710;8.736;2023-04-15T10:56:43;8.80;;;7.57;;
54959;SDS011;40860;51.710;8.736;2023-04-15T11:00:48;8.48;;;7.13;;
54959;SDS011;40860;51.710;8.736;2023-04-15T11:04:53;12.90;;;9.50;;
54959;SDS011;40860;51.710;8.736;2023-04-15T11:08:57;9.90;;;8.40;;
54959;SDS011;40860;51.710;8.736;2023-04-15T11:13:04;9.95;;;7.85;;
54959;SDS011;40860;51.710;8.736;2023-04-15T11:17:25;11.20;;;8.82;;
54959;SDS011;40860;51.710;8.736;2023-04-15T11:21:30;10.63;;;8.00;;
54959;SDS011;40860;51.710;8.736;2023-04-15T11:25:34;8.90;;;7.60;;
54959;SDS011;40860;51.710;8.736;2023-04-15T11:29:42;10.00;;;8.27;;
54959;SDS011;40860;51.710;8.736;2023-04-15T11:33:45;9.95;;;8.02;;
54959;SDS011;40860;51.710;8.736;2023-04-15T11:37:55;9.27;;;7.40;;
54959;SDS011;40860;51.710;8.736;2023-04-15T11:41:58;7.95;;;7.15;;
54959;SDS011;40860;51.710;8.736;2023-04-15T11:46:03;8.50;;;6.80;;
54959;SDS011;40860;51.710;8.736;2023-04-15T11:50:15;7.28;;;6.47;;
54959;SDS011;40860;51.710;8.736;2023-04-15T11:54:20;8.13;;;6.90;;
54959;SDS011;40860;51.710;8.736;2023-04-15T11:58:23;9.13;;;7.30;;
54959;SDS011;40860;51.710;8.736;2023-04-15T12:02:30;8.48;;;6.57;;
54959;SDS011;40860;51.710;8.736;2023-04-15T12:06:34;8.50;;;6.53;;
54959;SDS011;40860;51.710;8.736;2023-04-15T12:10:37;7.35;;;6.50;;
54959;SDS011;40860;51.710;8.736;2023-04-15T12:14:40;7.25;;;6.43;;
54959;SDS011;40860;51.710;8.736;2023-04-15T12:18:45;7.50;;;6.20;;
54959;SDS011;40860;51.710;8.736;2023-04-15T12:22:48;7.80;;;7.10;;
54959;SDS011;40860;51.710;8.736;2023-04-15T12:26:52;6.75;;;6.00;;
54959;SDS011;40860;51.710;8.736;2023-04-15T12:30:57;6.90;;;6.20;;
54959;SDS011;40860;51.710;8.736;2023-04-15T12:35:02;6.43;;;5.82;;
54959;SDS011;40860;51.710;8.736;2023-04-15T12:39:05;7.22;;;6.22;;
54959;SDS011;40860;51.710;8.736;2023-04-15T12:43:08;7.72;;;6.93;;
54959;SDS011;40860;51.710;8.736;2023-04-15T12:47:11;6.30;;;5.72;;
54959;SDS011;40860;51.710;8.736;2023-04-15T12:51:16;7.00;;;6.30;;
54959;SDS011;40860;51.710;8.736;2023-04-15T12:55:19;6.82;;;6.13;;
54959;SDS011;40860;51.710;8.736;2023-04-15T12:59:21;7.13;;;6.22;;
54959;SDS011;40860;51.710;8.736;2023-04-15T13:03:25;9.38;;;6.40;;
54959;SDS011;40860;51.710;8.736;2023-04-15T13:07:29;6.45;;;5.85;;
54959;SDS011;40860;51.710;8.736;2023-04-15T13:11:32;6.13;;;5.53;;
54959;SDS011;40860;51.710;8.736;2023-04-15T13:15:35;6.50;;;5.90;;
54959;SDS011;40860;51.710;8.736;2023-04-15T13:19:38;6.05;;;5.55;;
54959;SDS011;40860;51.710;8.736;2023-04-15T13:23:43;6.68;;;5.95;;
54959;SDS011;40860;51.710;8.736;2023-04-15T13:27:45;5.97;;;5.43;;
54959;SDS011;40860;51.710;8.736;2023-04-15T13:31:48;6.60;;;5.93;;
54959;SDS011;40860;51.710;8.736;2023-04-15T13:35:51;7.50;;;6.03;;
54959;SDS011;40860;51.710;8.736;2023-04-15T13:39:56;7.53;;;6.82;;
54959;SDS011;40860;51.710;8.736;2023-04-15T13:43:59;6.22;;;5.72;;
54959;SDS011;40860;51.710;8.736;2023-04-15T13:48:02;6.18;;;5.57;;
54959;SDS011;40860;51.710;8.736;2023-04-15T13:52:05;6.45;;;5.85;;
54959;SDS011;40860;51.710;8.736;2023-04-15T13:56:09;5.68;;;5.18;;
54959;SDS011;40860;51.710;8.736;2023-04-15T14:00:12;5.90;;;5.40;;
54959;SDS011;40860;51.710;8.736;2023-04-15T14:04:15;5.80;;;5.30;;
54959;SDS011;40860;51.710;8.736;2023-04-15T14:08:18;5.57;;;5.07;;
54959;SDS011;40860;51.710;8.736;2023-04-15T14:12:23;6.53;;;5.85;;
54959;SDS011;40860;51.710;8.736;2023-04-15T14:16:26;6.38;;;5.35;;
54959;SDS011;40860;51.710;8.736;2023-04-15T14:20:30;5.00;;;4.60;;
54959;SDS011;40860;51.710;8.736;2023-04-15T14:24:33;5.38;;;4.88;;
54959;SDS011;40860;51.710;8.736;2023-04-15T14:28:37;6.07;;;5.30;;
54959;SDS011;40860;51.710;8.736;2023-04-15T14:32:40;5.10;;;4.65;;
54959;SDS011;40860;51.710;8.736;2023-04-15T14:36:43;6.10;;;5.50;;
54959;SDS011;40860;51.710;8.736;2023-04-15T14:40:46;6.32;;;5.72;;
54959;SDS011;40860;51.710;8.736;2023-04-15T14:44:50;7.15;;;5.70;;
54959;SDS011;40860;51.710;8.736;2023-04-15T14:48:53;6.10;;;5.50;;
54959;SDS011;40860;51.710;8.736;2023-04-15T14:52:57;7.07;;;6.38;;
54959;SDS011;40860;51.710;8.736;2023-04-15T14:57:00;8.60;;;6.93;;
54959;SDS011;40860;51.710;8.736;2023-04-15T15:01:04;9.00;;;7.38;;
54959;SDS011;40860;51.710;8.736;2023-04-15T15:05:08;7.65;;;6.82;;
54959;SDS011;40860;51.710;8.736;2023-04-15T15:09:12;9.77;;;7.82;;
54959;SDS011;40860;51.710;8.736;2023-04-15T15:13:15;8.13;;;7.30;;
54959;SDS011;40860;51.710;8.736;2023-04-15T15:17:20;8.60;;;7.70;;
54959;SDS011;40860;51.710;8.736;2023-04-15T15:21:23;12.55;;;8.32;;
54959;SDS011;40860;51.710;8.736;2023-04-15T15:25:27;9.07;;;8.07;;
54959;SDS011;40860;51.710;8.736;2023-04-15T15:29:30;7.97;;;7.18;;
54959;SDS011;40860;51.710;8.736;2023-04-15T15:33:34;10.18;;;8.27;;
54959;SDS011;40860;51.710;8.736;2023-04-15T15:37:37;11.07;;;8.32;;
54959;SDS011;40860;51.710;8.736;2023-04-15T15:41:39;10.55;;;8.13;;
54959;SDS011;40860;51.710;8.736;2023-04-15T15:45:43;10.48;;;7.63;;
54959;SDS011;40860;51.710;8.736;2023-04-15T15:49:47;10.95;;;8.63;;
54959;SDS011;40860;51.710;8.736;2023-04-15T15:53:50;9.80;;;7.88;;
54959;SDS011;40860;51.710;8.736;2023-04-15T15:57:53;9.55;;;8.02;;
54959;SDS011;40860;51.710;8.736;2023-04-15T16:01:56;9.45;;;8.45;;
54959;SDS011;40860;51.710;8.736;2023-04-15T16:06:00;9.43;;;8.35;;
54959;SDS011;40860;51.710;8.736;2023-04-15T16:10:07;9.55;;;8.15;;
54959;SDS011;40860;51.710;8.736;2023-04-15T16:14:11;9.18;;;8.27;;
54959;SDS011;40860;51.710;8.736;2023-04-15T16:18:15;8.70;;;7.82;;
54959;SDS011;40860;51.710;8.736;2023-04-15T16:22:19;9.80;;;8.25;;
54959;SDS011;40860;51.710;8.736;2023-04-15T16:26:23;9.60;;;8.60;;
54959;SDS011;40860;51.710;8.736;2023-04-15T16:30:25;9.85;;;8.55;;
54959;SDS011;40860;51.710;8.736;2023-04-15T16:34:29;10.20;;;9.20;;
54959;SDS011;40860;51.710;8.736;2023-04-15T16:38:33;10.30;;;9.18;;
54959;SDS011;40860;51.710;8.736;2023-04-15T16:42:36;10.35;;;9.27;;
54959;SDS011;40860;51.710;8.736;2023-04-15T16:46:38;9.82;;;8.82;;
54959;SDS011;40860;51.710;8.736;2023-04-15T16:50:41;11.38;;;10.05;;
54959;SDS011;40860;51.710;8.736;2023-04-15T16:54:45;10.85;;;9.40;;
54959;SDS011;40860;51.710;8.736;2023-04-15T16:58:48;11.43;;;9.77;;
54959;SDS011;40860;51.710;8.736;2023-04-15T17:02:51;10.70;;;9.60;;
54959;SDS011;40860;51.710;8.736;2023-04-15T17:06:54;10.88;;;9.35;;
54959;SDS011;40860;51.710;8.736;2023-04-15T17:10:58;10.50;;;9.20;;
54959;SDS011;40860;51.710;8.736;2023-04-15T17:15:02;10.07;;;8.82;;
54959;SDS011;40860;51.710;8.736;2023-04-15T17:19:05;10.98;;;9.35;;
54959;SDS011;40860;51.710;8.736;2023-04-15T17:23:08;11.07;;;9.50;;
54959;SDS011;40860;51.710;8.736;2023-04-15T17:27:12;10.40;;;9.30;;
54959;SDS011;40860;51.710;8.736;2023-04-15T17:31:15;11.77;;;9.63;;
54959;SDS011;40860;51.710;8.736;2023-04-15T17:35:18;11.68;;;9.93;;
54959;SDS011;40860;51.710;8.736;2023-04-15T17:39:23;11.48;;;10.23;;
54959;SDS011;40860;51.710;8.736;2023-04-15T17:43:28;13.10;;;11.13;;
54959;SDS011;40860;51.710;8.736;2023-04-15T17:47:31;15.75;;;10.85;;
54959;SDS011;40860;51.710;8.736;2023-04-15T17:51:36;12.75;;;10.82;;
54959;SDS011;40860;51.710;8.736;2023-04-15T17:55:42;13.73;;;11.07;;
54959;SDS011;40860;51.710;8.736;2023-04-15T17:59:47;17.50;;;12.77;;
54959;SDS011;40860;51.710;8.736;2023-04-15T18:03:51;14.90;;;10.95;;
54959;SDS011;40860;51.710;8.736;2023-04-15T18:08:00;14.68;;;11.73;;
54959;SDS011;40860;51.710;8.736;2023-04-15T18:12:03;15.68;;;12.30;;
54959;SDS011;40860;51.710;8.736;2023-04-15T18:16:09;16.83;;;12.57;;
54959;SDS011;40860;51.710;8.736;2023-04-15T18:20:12;16.52;;;12.23;;
54959;SDS011;40860;51.710;8.736;2023-04-15T18:24:15;17.17;;;12.35;;
54959;SDS011;40860;51.710;8.736;2023-04-15T18:28:19;17.52;;;13.45;;
54959;SDS011;40860;51.710;8.736;2023-04-15T18:32:24;18.08;;;13.40;;
54959;SDS011;40860;51.710;8.736;2023-04-15T18:36:35;21.80;;;14.43;;
54959;SDS011;40860;51.710;8.736;2023-04-15T18:40:38;20.40;;;15.00;;
54959;SDS011;40860;51.710;8.736;2023-04-15T18:44:44;21.52;;;14.57;;
54959;SDS011;40860;51.710;8.736;2023-04-15T18:48:48;24.60;;;15.30;;
54959;SDS011;40860;51.710;8.736;2023-04-15T18:52:51;24.40;;;15.63;;
54959;SDS011;40860;51.710;8.736;2023-04-15T18:56:54;24.40;;;17.27;;
54959;SDS011;40860;51.710;8.736;2023-04-15T19:00:57;25.25;;;17.52;;
54959;SDS011;40860;51.710;8.736;2023-04-15T19:05:02;23.13;;;17.15;;
54959;SDS011;40860;51.710;8.736;2023-04-15T19:09:06;27.23;;;17.48;;
54959;SDS011;40860;51.710;8.736;2023-04-15T19:13:09;28.50;;;17.83;;
54959;SDS011;40860;51.710;8.736;2023-04-15T19:17:12;30.35;;;19.02;;
54959;SDS011;40860;51.710;8.736;2023-04-15T19:21:16;27.88;;;18.30;;
54959;SDS011;40860;51.710;8.736;2023-04-15T19:25:19;26.73;;;17.73;;
54959;SDS011;40860;51.710;8.736;2023-04-15T19:29:23;27.50;;;19.00;;
54959;SDS011;40860;51.710;8.736;2023-04-15T19:33:26;29.13;;;19.60;;
54959;SDS011;40860;51.710;8.736;2023-04-15T19:37:32;28.92;;;18.98;;
54959;SDS011;40860;51.710;8.736;2023-04-15T19:41:36;32.15;;;19.85;;
54959;SDS011;40860;51.710;8.736;2023-04-15T19:45:39;31.45;;;20.10;;
54959;SDS011;40860;51.710;8.736;2023-04-15T19:49:42;30.67;;;20.73;;
54959;SDS011;40860;51.710;8.736;2023-04-15T19:53:46;32.80;;;21.08;;
54959;SDS011;40860;51.710;8.736;2023-04-15T19:57:50;30.98;;;20.95;;
54959;SDS011;40860;51.710;8.736;2023-04-15T20:01:53;35.38;;;22.75;;
54959;SDS011;40860;51.710;8.736;2023-04-15T20:05:56;33.92;;;22.52;;
54959;SDS011;40860;51.710;8.736;2023-04-15T20:10:00;39.40;;;23.80;;
54959;SDS011;40860;51.710;8.736;2023-04-15T20:14:12;36.58;;;23.15;;
54959;SDS011;40860;51.710;8.736;2023-04-15T20:18:21;38.88;;;24.00;;
54959;SDS011;40860;51.710;8.736;2023-04-15T20:22:23;35.80;;;22.90;;
54959;SDS011;40860;51.710;8.736;2023-04-15T20:26:28;36.28;;;23.45;;
54959;SDS011;40860;51.710;8.736;2023-04-15T20:30:31;38.05;;;22.38;;
54959;SDS011;40860;51.710;8.736;2023-04-15T20:34:37;38.60;;;23.60;;
54959;SDS011;40860;51.710;8.736;2023-04-15T20:38:41;38.40;;;23.90;;
54959;SDS011;40860;51.710;8.736;2023-04-15T20:42:50;39.05;;;24.38;;
54959;SDS011;40860;51.710;8.736;2023-04-15T20:46:53;40.65;;;25.02;;
54959;SDS011;40860;51.710;8.736;2023-04-15T20:50:55;38.90;;;24.73;;
54959;SDS011;40860;51.710;8.736;2023-04-15T20:54:58;38.72;;;25.60;;
54959;SDS011;40860;51.710;8.736;2023-04-15T20:59:03;42.75;;;25.70;;
54959;SDS011;40860;51.710;8.736;2023-04-15T21:03:06;42.65;;;26.02;;
54959;SDS011;40860;51.710;8.736;2023-04-15T21:07:09;44.53;;;25.88;;
54959;SDS011;40860;51.710;8.736;2023-04-15T21:11:12;43.30;;;25.52;;
54959;SDS011;40860;51.710;8.736;2023-04-15T21:15:36;43.25;;;26.05;;
54959;SDS011;40860;51.710;8.736;2023-04-15T21:19:39;46.95;;;26.55;;
54959;SDS011;40860;51.710;8.736;2023-04-15T21:23:43;40.58;;;26.83;;
54959;SDS011;40860;51.710;8.736;2023-04-15T21:27:46;41.97;;;26.13;;
54959;SDS011;40860;51.710;8.736;2023-04-15T21:31:52;43.85;;;25.83;;
54959;SDS011;40860;51.710;8.736;2023-04-15T21:35:55;41.30;;;25.38;;
54959;SDS011;40860;51.710;8.736;2023-04-15T21:39:59;45.25;;;26.20;;
54959;SDS011;40860;51.710;8.736;2023-04-15T21:44:02;47.63;;;27.40;;
54959;SDS011;40860;51.710;8.736;2023-04-15T21:48:06;49.53;;;28.63;;
54959;SDS011;40860;51.710;8.736;2023-04-15T21:52:09;52.10;;;29.60;;
54959;SDS011;40860;51.710;8.736;2023-04-15T21:56:12;51.70;;;29.02;;
54959;SDS011;40860;51.710;8.736;2023-04-15T22:00:15;49.95;;;29.17;;
54959;SDS011;40860;51.710;8.736;2023-04-15T22:04:20;55.20;;;29.90;;
54959;SDS011;40860;51.710;8.736;2023-04-15T22:08:23;51.53;;;30.25;;
54959;SDS011;40860;51.710;8.736;2023-04-15T22:12:26;56.05;;;31.08;;
54959;SDS011;40860;51.710;8.736;2023-04-15T22:16:29;57.85;;;32.00;;
54959;SDS011;40860;51.710;8.736;2023-04-15T22:20:35;57.78;;;31.40;;
54959;SDS011;40860;51.710;8.736;2023-04-15T22:24:38;61.30;;;32.00;;
54959;SDS011;40860;51.710;8.736;2023-04-15T22:28:41;49.47;;;30.40;;
54959;SDS011;40860;51.710;8.736;2023-04-15T22:32:46;49.80;;;30.35;;
54959;SDS011;40860;51.710;8.736;2023-04-15T22:36:54;58.22;;;32.50;;
54959;SDS011;40860;51.710;8.736;2023-04-15T22:40:57;64.10;;;32.65;;
54959;SDS011;40860;51.710;8.736;2023-04-15T22:45:04;56.67;;;32.25;;
54959;SDS011;40860;51.710;8.736;2023-04-15T22:49:14;56.85;;;32.67;;
54959;SDS011;40860;51.710;8.736;2023-04-15T22:53:26;65.10;;;34.45;;
54959;SDS011;40860;51.710;8.736;2023-04-15T22:57:29;60.55;;;32.67;;
54959;SDS011;40860;51.710;8.736;2023-04-15T23:01:33;59.20;;;33.22;;
54959;SDS011;40860;51.710;8.736;2023-04-15T23:05:36;59.33;;;34.28;;
54959;SDS011;40860;51.710;8.736;2023-04-15T23:09:42;54.42;;;32.17;;
54959;SDS011;40860;51.710;8.736;2023-04-15T23:13:45;55.88;;;33.40;;
54959;SDS011;40860;51.710;8.736;2023-04-15T23:17:48;58.03;;;33.55;;
54959;SDS011;40860;51.710;8.736;2023-04-15T23:21:51;56.45;;;34.25;;
54959;SDS011;40860;51.710;8.736;2023-04-15T23:25:56;60.88;;;34.30;;
54959;SDS011;40860;51.710;8.736;2023-04-15T23:29:59;61.30;;;34.63;;
54959;SDS011;40860;51.710;8.736;2023-04-15T23:34:02;58.17;;;34.67;;
54959;SDS011;40860;51.710;8.736;2023-04-15T23:38:05;56.03;;;34.15;;
54959;SDS011;40860;51.710;8.736;2023-04-15T23:42:09;56.28;;;35.17;;
54959;SDS011;40860;51.710;8.736;2023-04-15T23:46:12;63.00;;;35.13;;
54959;SDS011;40860;51.710;8.736;2023-04-15T23:50:16;61.65;;;35.08;;
54959;SDS011;40860;51.710;8.736;2023-04-15T23:54:19;64.38;;;35.25;;
54959;SDS011;40860;51.710;8.736;2023-04-15T23:58:23;55.05;;;34.33;;
